Terminal Aerodrome Forecast
Issued by NWS Cleveland, OH

Home | Current Version | Previous Version | Text Only | Print | Product List | Glossary On
Versions: 1 2 3 4 5 6 7 8 9 10 11 12 13 14 15 16 17 18
000
FTUS41 KCLE 022339
TAFCAK
TAF
KCAK 022339Z 0300/0324 26008KT P6SM SCT050
     FM030200 25005KT P6SM VCSH SCT050 BKN100
     FM030500 25005KT P6SM SCT100
     FM030900 25004KT 5SM BR SCT200
     FM031500 28005KT P6SM SCT060 BKN150=

USA.gov is the U.S. government's official web portal to all federal, state and local government web resources and services.